Time;durP1;ratioP1;P1;durP2;ratioP2;P2;SDS_P1;SDS_P2;PMS_P1;PMS_P2;Temp;Humidity;BMP_temperature;BMP_pressure;BME280_temperature;BME280_humidity;BME280_pressure;Samples;Min_cycle;Max_cycle;Signal;HPM_P1;HPM_P2
2022/02/14 00:02:04;;;;;;;16.80;4.17;;;3.40;99.90;;;;;;5051454;28;20141;-65
2022/02/14 00:04:31;;;;;;;9.40;3.87;;;3.40;99.90;;;;;;5051505;28;20144;-65
2022/02/14 00:06:58;;;;;;;12.43;4.37;;;3.40;99.90;;;;;;5051191;28;20091;-66
2022/02/14 00:09:25;;;;;;;14.57;4.23;;;3.40;99.90;;;;;;5051403;28;20223;-65
2022/02/14 00:11:53;;;;;;;9.80;4.00;;;3.40;99.90;;;;;;5051372;28;20492;-65
2022/02/14 00:14:20;;;;;;;10.50;3.90;;;3.40;99.90;;;;;;5051399;28;20416;-66
2022/02/14 00:16:49;;;;;;;9.20;3.63;;;3.50;99.90;;;;;;5050962;28;20055;-65
2022/02/14 00:19:16;;;;;;;13.40;3.70;;;3.40;99.90;;;;;;5051330;28;20415;-66
2022/02/14 00:21:43;;;;;;;10.03;3.87;;;3.50;99.90;;;;;;5051458;28;20081;-65
2022/02/14 00:24:10;;;;;;;10.03;3.40;;;3.50;99.90;;;;;;5051309;28;20128;-65
2022/02/14 00:26:37;;;;;;;8.93;4.47;;;3.50;99.90;;;;;;5051431;28;20053;-65
2022/02/14 00:29:04;;;;;;;8.67;3.30;;;3.50;99.90;;;;;;5051358;28;20049;-65
2022/02/14 00:31:31;;;;;;;7.37;2.90;;;3.60;99.90;;;;;;5051209;28;20494;-66
2022/02/14 00:34:00;;;;;;;6.77;3.27;;;3.70;99.90;;;;;;5051243;28;20045;-65
2022/02/14 00:36:27;;;;;;;8.70;3.50;;;3.60;99.90;;;;;;5051079;28;20049;-65
2022/02/14 00:38:54;;;;;;;8.90;3.83;;;3.70;99.90;;;;;;5051220;28;20052;-65
2022/02/14 00:41:21;;;;;;;8.77;3.37;;;3.70;99.90;;;;;;5054622;28;20049;-65
2022/02/14 00:43:48;;;;;;;8.27;3.33;;;3.60;99.90;;;;;;5054838;28;20571;-65
2022/02/14 00:46:15;;;;;;;12.23;3.80;;;3.60;99.90;;;;;;5054441;28;20100;-65
2022/02/14 00:48:42;;;;;;;9.20;3.50;;;3.70;99.90;;;;;;5054753;28;20132;-65
2022/02/14 00:51:10;;;;;;;8.80;3.27;;;3.60;99.90;;;;;;5054630;28;20580;-65
2022/02/14 00:53:37;;;;;;;10.83;3.30;;;3.60;99.90;;;;;;5054526;28;20128;-65
2022/02/14 00:56:04;;;;;;;8.70;2.80;;;3.60;99.90;;;;;;5054108;28;20140;-65
2022/02/14 00:58:31;;;;;;;7.13;2.67;;;3.60;99.90;;;;;;5054488;28;20132;-67
2022/02/14 01:00:58;;;;;;;7.87;2.83;;;3.70;99.90;;;;;;5054517;28;20059;-65
2022/02/14 01:03:25;;;;;;;7.67;3.13;;;3.70;99.90;;;;;;5054512;28;20461;-65
2022/02/14 01:05:52;;;;;;;8.37;3.40;;;3.70;99.90;;;;;;5054154;28;20124;-65
2022/02/14 01:08:20;;;;;;;7.27;3.10;;;3.80;99.90;;;;;;5054759;28;20135;-65
2022/02/14 01:10:47;;;;;;;7.97;3.10;;;3.80;99.90;;;;;;5054267;28;20235;-66
2022/02/14 01:13:14;;;;;;;8.57;3.07;;;3.70;99.90;;;;;;5054283;28;20394;-65
2022/02/14 01:15:41;;;;;;;8.17;3.23;;;3.70;99.90;;;;;;5053849;28;20136;-66
2022/02/14 01:18:07;;;;;;;7.77;2.93;;;3.60;99.90;;;;;;5054127;28;20490;-65
2022/02/14 01:20:34;;;;;;;12.93;3.10;;;3.70;99.90;;;;;;5054276;28;20485;-65
2022/02/14 01:23:01;;;;;;;7.40;3.30;;;3.60;99.90;;;;;;5054297;28;20109;-65
2022/02/14 01:25:29;;;;;;;8.33;3.40;;;3.70;99.90;;;;;;5053457;28;20053;-65
2022/02/14 01:27:56;;;;;;;7.63;3.30;;;3.70;99.90;;;;;;5053909;28;20127;-65
2022/02/14 01:30:23;;;;;;;8.13;3.30;;;3.70;99.90;;;;;;5054073;28;20631;-65
2022/02/14 01:32:50;;;;;;;9.10;3.13;;;3.60;99.90;;;;;;5053975;28;20479;-65
2022/02/14 01:35:17;;;;;;;9.90;3.20;;;3.70;99.90;;;;;;5053429;28;20140;-65
2022/02/14 01:37:44;;;;;;;8.53;3.20;;;3.70;99.90;;;;;;5053927;28;20159;-65
2022/02/14 01:40:13;;;;;;;8.53;2.90;;;3.70;99.90;;;;;;5053850;28;20132;-66
2022/02/14 01:42:42;;;;;;;9.67;3.10;;;3.60;99.90;;;;;;5054128;28;20131;-65
2022/02/14 01:45:10;;;;;;;10.23;3.37;;;3.60;99.90;;;;;;5053326;28;20139;-65
2022/02/14 01:47:37;;;;;;;7.07;2.77;;;3.50;99.90;;;;;;5054175;28;20041;-65
2022/02/14 01:50:06;;;;;;;8.43;3.00;;;3.50;99.90;;;;;;5053529;28;20144;-65
2022/02/14 01:52:35;;;;;;;9.37;3.27;;;3.50;99.90;;;;;;5053026;28;20060;-66
2022/02/14 01:55:03;;;;;;;8.63;3.07;;;3.60;99.90;;;;;;5053480;28;20481;-65
2022/02/14 01:57:30;;;;;;;8.90;3.37;;;3.70;99.90;;;;;;5053432;28;20056;-65
2022/02/14 01:59:58;;;;;;;9.60;3.23;;;3.60;99.90;;;;;;5053307;28;20071;-66
2022/02/14 02:02:26;;;;;;;7.37;3.00;;;3.70;99.90;;;;;;5053540;28;20072;-65
2022/02/14 02:04:53;;;;;;;7.03;3.27;;;3.70;99.90;;;;;;5053040;28;20381;-65
2022/02/14 02:07:20;;;;;;;8.47;3.17;;;3.80;99.90;;;;;;5053189;28;20088;-66
2022/02/14 02:09:47;;;;;;;7.57;3.40;;;3.80;99.90;;;;;;5053225;28;20567;-66
2022/02/14 02:12:23;;;;;;;8.17;3.03;;;3.80;99.90;;;;;;5053201;28;20140;-65
2022/02/14 02:14:51;;;;;;;9.18;3.53;;;3.80;99.90;;;;;;5052745;28;20051;-65
2022/02/14 02:17:19;;;;;;;10.13;3.77;;;3.90;99.90;;;;;;5052951;28;20049;-65
2022/02/14 02:19:46;;;;;;;7.77;2.93;;;3.90;99.90;;;;;;5052729;28;20132;-65
2022/02/14 02:22:13;;;;;;;8.93;3.03;;;3.90;99.90;;;;;;5053147;28;20056;-65
2022/02/14 02:24:47;;;;;;;7.50;3.33;;;3.90;99.90;;;;;;5052784;28;20404;-65
2022/02/14 02:27:14;;;;;;;7.83;2.80;;;3.90;99.90;;;;;;5052837;28;20540;-65
2022/02/14 02:29:41;;;;;;;8.70;3.23;;;3.90;99.90;;;;;;5053041;28;20497;-65
2022/02/14 02:32:10;;;;;;;10.40;3.47;;;3.90;99.90;;;;;;5052778;28;20147;-65
2022/02/14 02:34:39;;;;;;;7.70;3.37;;;3.90;99.90;;;;;;5052817;28;20044;-65
2022/02/14 02:37:07;;;;;;;8.07;2.97;;;3.90;99.90;;;;;;5052486;28;20041;-65
2022/02/14 02:39:35;;;;;;;8.07;3.27;;;3.90;99.90;;;;;;5053021;28;20063;-65
2022/02/14 02:42:04;;;;;;;11.33;3.27;;;4.00;99.90;;;;;;5052742;28;20136;-65
2022/02/14 02:44:33;;;;;;;6.27;2.60;;;4.00;99.90;;;;;;5052446;28;20497;-65
2022/02/14 02:47:01;;;;;;;6.13;2.77;;;4.10;99.90;;;;;;5052650;28;20497;-65
2022/02/14 02:49:28;;;;;;;8.23;3.40;;;4.10;99.90;;;;;;5052308;28;20517;-65
2022/02/14 02:51:56;;;;;;;8.97;3.47;;;4.10;99.90;;;;;;5052430;28;20076;-66
2022/02/14 02:54:25;;;;;;;7.70;2.93;;;4.10;99.90;;;;;;5052381;28;20402;-65
2022/02/14 02:56:54;;;;;;;7.63;2.63;;;4.00;99.90;;;;;;5052741;28;20195;-65
2022/02/14 02:59:25;;;;;;;8.17;2.90;;;4.00;99.90;;;;;;5052698;28;20084;-65
2022/02/14 03:01:52;;;;;;;9.37;3.10;;;4.00;99.90;;;;;;5052644;28;20147;-65
2022/02/14 03:04:20;;;;;;;7.37;3.10;;;4.00;99.90;;;;;;5051952;28;20505;-65
2022/02/14 03:06:47;;;;;;;9.43;3.00;;;4.00;99.90;;;;;;5052115;28;20132;-66
2022/02/14 03:09:15;;;;;;;6.90;3.00;;;4.00;99.90;;;;;;5052056;28;20102;-66
2022/02/14 03:11:43;;;;;;;8.53;2.70;;;4.00;99.90;;;;;;5051936;28;20060;-65
2022/02/14 03:14:10;;;;;;;8.73;3.47;;;4.10;99.90;;;;;;5051886;28;20131;-65
2022/02/14 03:16:39;;;;;;;7.27;3.00;;;4.10;99.90;;;;;;5051745;28;20140;-65
2022/02/14 03:19:06;;;;;;;9.80;4.33;;;4.10;99.90;;;;;;5051884;28;20568;-65
2022/02/14 03:21:34;;;;;;;6.80;2.93;;;4.10;99.90;;;;;;5052337;28;20100;-65
2022/02/14 03:24:02;;;;;;;8.57;2.80;;;4.10;99.90;;;;;;5051783;28;20060;-65
2022/02/14 03:26:29;;;;;;;6.27;2.60;;;4.10;99.90;;;;;;5051469;28;20489;-65
2022/02/14 03:28:57;;;;;;;6.57;2.73;;;4.10;99.90;;;;;;5051987;28;20161;-65
2022/02/14 03:31:25;;;;;;;8.13;3.80;;;4.10;99.90;;;;;;5051996;28;20136;-65
2022/02/14 03:33:53;;;;;;;7.67;2.60;;;4.10;99.90;;;;;;5048605;28;20131;-65
2022/02/14 03:36:22;;;;;;;8.10;2.63;;;4.20;99.90;;;;;;5032081;28;20152;-65
2022/02/14 03:38:50;;;;;;;8.20;2.90;;;4.20;99.90;;;;;;5031770;28;20136;-65
2022/02/14 03:41:17;;;;;;;8.57;3.10;;;4.20;99.90;;;;;;5031681;28;20133;-65
2022/02/14 03:43:44;;;;;;;9.17;3.30;;;4.20;99.90;;;;;;5031628;28;20054;-65
2022/02/14 03:46:11;;;;;;;7.57;2.93;;;4.30;99.90;;;;;;5031434;28;20129;-65
2022/02/14 03:48:38;;;;;;;7.97;2.70;;;4.30;99.90;;;;;;5031657;28;20056;-65
2022/02/14 03:51:06;;;;;;;6.53;3.07;;;4.30;99.90;;;;;;5031911;28;20132;-65
2022/02/14 03:53:33;;;;;;;6.70;2.90;;;4.30;99.90;;;;;;5031562;28;20057;-66
2022/02/14 03:56:00;;;;;;;6.90;2.77;;;4.30;99.90;;;;;;5031384;28;20132;-65
2022/02/14 03:58:28;;;;;;;8.43;3.00;;;4.40;99.90;;;;;;5031535;28;20543;-65
2022/02/14 04:00:55;;;;;;;7.10;2.70;;;4.50;99.90;;;;;;5035775;28;20045;-65
2022/02/14 04:03:21;;;;;;;7.17;2.87;;;4.50;99.90;;;;;;5039531;28;20120;-65
2022/02/14 04:05:48;;;;;;;9.63;2.80;;;4.40;99.90;;;;;;5038977;28;20140;-65
2022/02/14 04:08:17;;;;;;;7.70;2.70;;;4.40;99.90;;;;;;5031286;28;20576;-65
2022/02/14 04:10:45;;;;;;;6.47;2.47;;;4.50;99.90;;;;;;5038148;28;20421;-66
2022/02/14 04:13:12;;;;;;;6.27;2.67;;;4.50;99.90;;;;;;5039449;28;20088;-65
2022/02/14 04:15:39;;;;;;;9.30;2.63;;;4.40;99.90;;;;;;5056692;22;20128;-68
2022/02/14 04:18:08;;;;;;;6.83;2.30;;;4.50;99.90;;;;;;5055168;28;20056;-68
2022/02/14 04:20:35;;;;;;;11.83;2.63;;;4.50;99.90;;;;;;5054837;28;20427;-68
2022/02/14 04:23:02;;;;;;;5.47;2.37;;;4.60;99.90;;;;;;5036337;28;20060;-68
2022/02/14 04:25:32;;;;;;;8.17;2.67;;;4.60;99.90;;;;;;5034794;28;20180;-68
2022/02/14 04:27:59;;;;;;;7.57;2.37;;;4.60;99.90;;;;;;5035025;28;20049;-68
2022/02/14 04:30:29;;;;;;;7.40;2.70;;;4.60;99.90;;;;;;5035193;28;20109;-68
2022/02/14 04:32:58;;;;;;;7.30;2.77;;;4.60;99.90;;;;;;5035386;28;20057;-68
2022/02/14 04:35:27;;;;;;;7.17;2.63;;;4.60;99.90;;;;;;5035035;28;20148;-68
2022/02/14 04:37:58;;;;;;;9.30;2.73;;;4.60;99.90;;;;;;5034729;28;20049;-68
2022/02/14 04:40:27;;;;;;;9.63;2.60;;;4.60;99.90;;;;;;5035191;28;20061;-68
2022/02/14 04:42:55;;;;;;;10.10;2.83;;;4.60;99.90;;;;;;5035080;28;20060;-68
2022/02/14 04:45:22;;;;;;;6.03;2.50;;;4.70;99.90;;;;;;5034625;28;20060;-68
2022/02/14 04:47:50;;;;;;;6.70;2.80;;;4.60;99.90;;;;;;5035092;28;20133;-68
2022/02/14 04:50:16;;;;;;;7.85;2.63;;;4.60;99.90;;;;;;5035035;28;20140;-68
2022/02/14 04:52:43;;;;;;;7.13;2.63;;;4.60;99.90;;;;;;5035002;28;20053;-68
2022/02/14 04:55:11;;;;;;;7.27;2.47;;;4.60;99.90;;;;;;5034532;28;20513;-68
2022/02/14 04:57:38;;;;;;;8.20;2.77;;;4.60;99.90;;;;;;5034733;28;20221;-68
2022/02/14 05:00:09;;;;;;;7.32;2.55;;;4.50;99.90;;;;;;5034729;28;20136;-68
2022/02/14 05:02:36;;;;;;;10.30;3.03;;;4.50;99.90;;;;;;5034569;28;20099;-68
2022/02/14 05:05:04;;;;;;;7.37;2.77;;;4.60;99.90;;;;;;5034458;28;20136;-68
2022/02/14 05:07:31;;;;;;;7.20;3.03;;;4.60;99.90;;;;;;5034599;28;20128;-68
2022/02/14 05:09:57;;;;;;;8.80;2.70;;;4.50;99.90;;;;;;5034543;28;20568;-68
2022/02/14 05:12:24;;;;;;;8.02;2.78;;;4.60;99.90;;;;;;5034365;28;20107;-68
2022/02/14 05:14:51;;;;;;;8.27;2.63;;;4.60;99.90;;;;;;5033981;28;20128;-68
2022/02/14 05:17:20;;;;;;;6.68;2.53;;;4.60;99.90;;;;;;5034314;28;20090;-68
2022/02/14 05:19:47;;;;;;;5.83;2.33;;;4.60;99.90;;;;;;5034330;28;20133;-68
2022/02/14 05:22:14;;;;;;;12.80;2.90;;;4.70;99.90;;;;;;5034384;28;20045;-68
2022/02/14 05:24:41;;;;;;;6.22;2.55;;;4.70;99.90;;;;;;5033972;28;20572;-68
2022/02/14 05:27:08;;;;;;;7.13;2.57;;;4.80;99.90;;;;;;5032725;28;20409;-68
2022/02/14 05:29:35;;;;;;;6.13;2.50;;;4.70;99.90;;;;;;5034013;28;20143;-68
2022/02/14 05:32:02;;;;;;;7.57;2.60;;;4.80;99.90;;;;;;5033985;28;20136;-68
2022/02/14 05:34:30;;;;;;;8.03;2.70;;;4.80;99.90;;;;;;5033846;28;20128;-68
2022/02/14 05:36:57;;;;;;;6.23;2.30;;;4.80;99.90;;;;;;5033754;28;20140;-68
2022/02/14 05:39:24;;;;;;;6.17;2.30;;;4.80;99.90;;;;;;5034030;28;20045;-68
2022/02/14 05:41:51;;;;;;;6.73;2.50;;;4.80;99.90;;;;;;5033595;28;20137;-68
2022/02/14 05:44:17;;;;;;;6.63;2.60;;;4.80;99.90;;;;;;5033778;28;20049;-68
2022/02/14 05:46:44;;;;;;;6.50;2.53;;;4.80;99.90;;;;;;5033558;28;20132;-68
2022/02/14 05:49:11;;;;;;;7.37;2.97;;;4.90;99.90;;;;;;5033804;28;20140;-68
2022/02/14 05:51:40;;;;;;;4.90;1.92;;;4.90;99.90;;;;;;5033647;28;20088;-68
2022/02/14 05:54:06;;;;;;;9.10;2.83;;;4.80;99.90;;;;;;5033500;28;20139;-68
2022/02/14 05:56:34;;;;;;;7.68;2.47;;;4.80;99.90;;;;;;5033183;28;20141;-68
2022/02/14 05:59:01;;;;;;;7.37;3.00;;;4.90;99.90;;;;;;5033426;28;20585;-68
2022/02/14 06:01:28;;;;;;;9.27;2.60;;;4.80;99.90;;;;;;5033350;28;20084;-68
2022/02/14 06:03:55;;;;;;;5.03;2.63;;;4.90;99.90;;;;;;5033381;28;20144;-68
2022/02/14 06:06:22;;;;;;;6.33;2.27;;;4.90;99.90;;;;;;5033231;28;20095;-68
2022/02/14 06:08:50;;;;;;;5.00;2.13;;;4.80;99.90;;;;;;5033886;28;20136;-68
2022/02/14 06:11:17;;;;;;;7.73;2.60;;;4.80;99.90;;;;;;5033464;28;20119;-68
2022/02/14 06:13:44;;;;;;;6.40;2.20;;;4.80;99.90;;;;;;5033352;28;20055;-68
2022/02/14 06:16:11;;;;;;;7.33;2.57;;;4.70;99.90;;;;;;5032891;28;20587;-68
2022/02/14 06:18:38;;;;;;;11.97;2.53;;;4.80;99.90;;;;;;5033128;28;20053;-68
2022/02/14 06:21:05;;;;;;;10.33;2.63;;;4.70;99.90;;;;;;5033761;28;20132;-68
2022/02/14 06:23:32;;;;;;;6.23;2.60;;;4.60;99.90;;;;;;5033325;28;20139;-68
2022/02/14 06:26:02;;;;;;;4.83;2.50;;;4.60;99.90;;;;;;5032888;28;20593;-68
2022/02/14 06:28:29;;;;;;;9.17;3.03;;;4.60;99.90;;;;;;5032934;28;20049;-68
2022/02/14 06:30:56;;;;;;;11.13;2.83;;;4.60;99.90;;;;;;5032901;28;20128;-68
2022/02/14 06:33:23;;;;;;;7.30;2.77;;;4.50;99.90;;;;;;5032844;28;20132;-68
2022/02/14 06:35:52;;;;;;;8.83;2.57;;;4.50;99.90;;;;;;5032726;28;20060;-68
2022/02/14 06:38:19;;;;;;;5.97;2.10;;;4.60;99.90;;;;;;5032316;28;20418;-68
2022/02/14 06:40:46;;;;;;;7.30;2.37;;;4.60;99.90;;;;;;5032714;28;20111;-68
2022/02/14 06:43:14;;;;;;;6.90;2.70;;;4.60;99.90;;;;;;5032738;28;20042;-68
2022/02/14 06:45:41;;;;;;;9.37;3.00;;;4.60;99.90;;;;;;5032323;28;20045;-68
2022/02/14 06:48:08;;;;;;;8.43;2.60;;;4.70;99.90;;;;;;5032540;28;20492;-68
2022/02/14 06:50:35;;;;;;;11.77;2.80;;;4.70;99.90;;;;;;5032359;28;20165;-68
2022/02/14 06:53:02;;;;;;;7.13;2.70;;;4.80;99.90;;;;;;5032541;28;20140;-68
2022/02/14 06:55:29;;;;;;;6.13;2.17;;;4.80;99.90;;;;;;5032162;28;20128;-68
2022/02/14 06:57:56;;;;;;;17.27;3.03;;;4.80;99.90;;;;;;5032180;28;20046;-68
2022/02/14 07:00:24;;;;;;;14.83;2.93;;;4.80;99.90;;;;;;5032308;28;20085;-68
2022/02/14 07:02:51;;;;;;;5.43;2.40;;;4.80;99.90;;;;;;5032341;28;20136;-68
2022/02/14 07:05:21;;;;;;;8.40;2.77;;;4.90;99.90;;;;;;5031924;28;20140;-68
2022/02/14 07:07:49;;;;;;;5.97;2.70;;;4.90;99.90;;;;;;5032797;28;20054;-68
2022/02/14 07:10:17;;;;;;;9.77;2.80;;;5.00;99.90;;;;;;5032172;28;20054;-68
2022/02/14 07:12:45;;;;;;;9.00;2.53;;;5.00;99.90;;;;;;5032456;28;20068;-68
2022/02/14 07:15:12;;;;;;;9.02;2.50;;;5.10;99.90;;;;;;5031690;28;20416;-68
2022/02/14 07:17:41;;;;;;;8.17;2.40;;;5.10;99.90;;;;;;5031994;28;20090;-68
2022/02/14 07:20:10;;;;;;;7.40;2.67;;;5.20;99.90;;;;;;5032411;28;20152;-68
2022/02/14 07:22:36;;;;;;;6.30;2.05;;;5.20;99.90;;;;;;5037394;28;20084;-68
2022/02/14 07:25:04;;;;;;;8.23;2.40;;;5.30;99.90;;;;;;5035804;28;20073;-68
2022/02/14 07:27:33;;;;;;;10.33;2.37;;;5.40;99.90;;;;;;5034403;28;20132;-69
2022/02/14 07:30:00;;;;;;;8.60;2.37;;;5.40;99.90;;;;;;5036942;28;20060;-69
2022/02/14 07:32:27;;;;;;;6.53;2.30;;;5.50;99.90;;;;;;5042099;28;20069;-68
2022/02/14 07:34:56;;;;;;;9.50;2.90;;;5.50;99.90;;;;;;5042582;28;20080;-69
2022/02/14 07:37:23;;;;;;;8.30;2.78;;;5.60;99.90;;;;;;5033605;28;20060;-68
2022/02/14 07:39:50;;;;;;;8.05;2.60;;;5.60;99.90;;;;;;5031882;28;20498;-68
2022/02/14 07:42:17;;;;;;;8.73;2.60;;;5.60;99.90;;;;;;5032752;28;20076;-68
2022/02/14 07:44:44;;;;;;;7.90;2.90;;;5.70;99.90;;;;;;5031635;28;20057;-68
2022/02/14 07:47:12;;;;;;;7.88;2.42;;;5.70;99.90;;;;;;5031662;28;20052;-68
2022/02/14 07:49:39;;;;;;;9.07;3.47;;;5.80;99.90;;;;;;5030969;28;20145;-68
2022/02/14 07:52:08;;;;;;;6.63;2.33;;;5.80;99.90;;;;;;5031635;28;20133;-68
2022/02/14 07:54:35;;;;;;;7.60;3.03;;;5.90;99.90;;;;;;5031230;28;20053;-68
2022/02/14 07:57:02;;;;;;;8.45;2.50;;;5.90;99.90;;;;;;5031317;28;20053;-68
2022/02/14 07:59:29;;;;;;;5.97;2.33;;;5.90;99.90;;;;;;5031304;28;20145;-68
2022/02/14 08:01:56;;;;;;;9.85;2.33;;;6.00;99.90;;;;;;5031540;28;20462;-68
2022/02/14 08:04:23;;;;;;;5.43;2.20;;;5.90;99.90;;;;;;5031404;28;20132;-68
2022/02/14 08:06:49;;;;;;;6.13;2.60;;;5.80;99.90;;;;;;5031275;28;20106;-68
2022/02/14 08:09:18;;;;;;;6.20;2.15;;;5.80;99.90;;;;;;5031444;28;20136;-68
2022/02/14 08:11:45;;;;;;;6.45;2.60;;;5.80;99.90;;;;;;5031338;28;20511;-68
2022/02/14 08:14:13;;;;;;;5.03;2.03;;;5.90;99.90;;;;;;5031174;28;20084;-68
2022/02/14 08:16:41;;;;;;;7.70;2.72;;;6.00;99.90;;;;;;5031012;28;20553;-68
2022/02/14 08:19:08;;;;;;;7.18;2.88;;;6.00;99.60;;;;;;5031311;28;20060;-68
2022/02/14 08:21:35;;;;;;;11.15;2.67;;;6.20;99.60;;;;;;5031409;28;20402;-68
2022/02/14 08:24:04;;;;;;;7.30;2.20;;;6.20;99.50;;;;;;5031276;28;20065;-68
2022/02/14 08:26:33;;;;;;;8.80;2.30;;;6.30;99.30;;;;;;5031191;28;20057;-68
2022/02/14 08:29:01;;;;;;;4.93;2.10;;;6.50;99.20;;;;;;5031265;28;20568;-68
2022/02/14 08:31:28;;;;;;;6.05;2.03;;;6.60;98.80;;;;;;5031326;28;20042;-68
2022/02/14 08:33:55;;;;;;;11.82;2.70;;;7.00;98.70;;;;;;5031436;28;20405;-68
2022/02/14 08:36:22;;;;;;;7.50;2.60;;;7.20;98.50;;;;;;5031260;28;20136;-68
2022/02/14 08:38:49;;;;;;;7.28;2.10;;;7.60;98.40;;;;;;5031282;28;20050;-68
2022/02/14 08:41:16;;;;;;;7.55;2.30;;;8.00;97.40;;;;;;5030886;28;20085;-68
2022/02/14 08:43:44;;;;;;;6.07;2.40;;;10.20;96.10;;;;;;5031037;28;20059;-68
2022/02/14 08:46:11;;;;;;;7.78;2.75;;;12.10;93.40;;;;;;5030967;28;20492;-68
2022/02/14 08:48:38;;;;;;;7.68;2.97;;;12.70;93.00;;;;;;5031032;28;20050;-68
2022/02/14 08:51:05;;;;;;;7.88;2.42;;;13.10;92.20;;;;;;5031049;28;20493;-69
2022/02/14 08:53:36;;;;;;;7.20;2.38;;;14.10;91.50;;;;;;5030933;28;20049;-69
2022/02/14 08:56:05;;;;;;;6.15;2.60;;;13.40;90.60;;;;;;5031044;28;20076;-68
2022/02/14 08:58:32;;;;;;;7.63;2.75;;;13.10;91.40;;;;;;5030879;28;20410;-68
2022/02/14 09:01:01;;;;;;;6.55;2.67;;;13.90;91.10;;;;;;5032221;28;20049;-68
2022/02/14 09:03:28;;;;;;;7.60;2.95;;;14.30;90.20;;;;;;5035182;28;20489;-69
2022/02/14 09:05:55;;;;;;;5.50;2.40;;;15.10;89.80;;;;;;5035050;28;20128;-67
2022/02/14 09:08:23;;;;;;;8.30;2.97;;;15.50;87.80;;;;;;5034561;28;20141;-69
2022/02/14 09:10:50;;;;;;;9.10;2.80;;;15.10;88.10;;;;;;5034416;28;20144;-68
2022/02/14 09:13:17;;;;;;;5.50;2.35;;;15.90;86.80;;;;;;5034326;28;20512;-69
2022/02/14 09:15:44;;;;;;;6.28;2.42;;;14.80;87.80;;;;;;5033921;28;20140;-68
2022/02/14 09:18:13;;;;;;;6.35;2.55;;;14.60;88.10;;;;;;5034700;28;20092;-68
2022/02/14 09:20:40;;;;;;;4.85;2.20;;;15.40;87.70;;;;;;5034184;28;20057;-69
2022/02/14 09:23:07;;;;;;;5.82;2.40;;;15.70;86.90;;;;;;5034338;28;20585;-69
2022/02/14 09:25:34;;;;;;;6.03;2.42;;;15.80;86.80;;;;;;5034089;28;20103;-68
2022/02/14 09:28:02;;;;;;;8.40;2.85;;;13.30;87.30;;;;;;5034196;28;20128;-68
2022/02/14 09:30:31;;;;;;;7.53;2.50;;;11.70;91.00;;;;;;5034120;28;20564;-68
2022/02/14 09:32:57;;;;;;;7.65;2.60;;;10.60;92.20;;;;;;5034935;28;20057;-68
2022/02/14 09:35:29;;;;;;;6.10;2.80;;;10.90;92.00;;;;;;5034451;28;20088;-69
2022/02/14 09:37:57;;;;;;;7.40;2.38;;;12.20;91.50;;;;;;5035202;28;20054;-68
2022/02/14 09:40:25;;;;;;;5.57;2.33;;;12.10;91.40;;;;;;5034164;28;20095;-69
2022/02/14 09:42:54;;;;;;;8.02;2.70;;;11.00;91.60;;;;;;5034660;28;20585;-68
2022/02/14 09:45:22;;;;;;;4.65;2.17;;;12.30;91.60;;;;;;5034108;28;20061;-68
2022/02/14 09:47:52;;;;;;;7.00;2.78;;;13.10;90.60;;;;;;5033601;28;20045;-68
2022/02/14 09:50:21;;;;;;;6.65;2.45;;;13.20;90.70;;;;;;5033612;28;20595;-68
2022/02/14 09:52:49;;;;;;;7.25;2.20;;;14.90;89.00;;;;;;5033726;28;20132;-68
2022/02/14 09:55:16;;;;;;;7.10;2.85;;;14.50;88.40;;;;;;5033939;28;20136;-70
2022/02/14 09:57:43;;;;;;;8.52;3.17;;;14.90;88.50;;;;;;5034254;28;20187;-69
2022/02/14 10:00:11;;;;;;;6.70;2.53;;;12.10;90.30;;;;;;5033495;28;20576;-68
2022/02/14 10:02:38;;;;;;;7.20;2.40;;;10.40;91.80;;;;;;5033687;28;20156;-68
2022/02/14 10:05:07;;;;;;;8.93;2.55;;;9.90;92.90;;;;;;5033391;28;20099;-68
2022/02/14 10:07:42;;;;;;;5.97;2.72;;;9.50;93.20;;;;;;5033541;28;20068;-68
2022/02/14 10:10:13;;;;;;;9.38;2.50;;;9.30;93.70;;;;;;5033491;28;20458;-68
2022/02/14 10:12:42;;;;;;;6.75;2.63;;;9.10;94.10;;;;;;5032511;28;20060;-69
2022/02/14 10:15:10;;;;;;;5.07;2.10;;;9.10;94.20;;;;;;5050614;22;20061;-66
2022/02/14 10:17:42;;;;;;;6.15;2.40;;;9.30;94.30;;;;;;5052525;28;20143;-66
2022/02/14 10:20:11;;;;;;;6.25;2.47;;;9.50;94.30;;;;;;5053086;28;20132;-66
2022/02/14 10:22:55;;;;;;;6.88;2.92;;;9.90;94.30;;;;;;5052968;28;20128;-66
2022/02/14 10:25:33;;;;;;;5.90;2.08;;;9.60;94.50;;;;;;5052779;28;20048;-66
2022/02/14 10:28:22;;;;;;;6.57;2.53;;;9.60;94.50;;;;;;5052944;28;20131;-66
2022/02/14 10:30:59;;;;;;;10.60;2.80;;;9.60;95.00;;;;;;5052672;28;20131;-66
2022/02/14 10:33:46;;;;;;;6.90;2.55;;;9.80;94.30;;;;;;5052663;28;20053;-66
2022/02/14 10:36:14;;;;;;;6.53;2.13;;;9.90;94.50;;;;;;5052534;28;20045;-66
2022/02/14 10:38:41;;;;;;;6.90;2.30;;;9.80;94.50;;;;;;5052709;28;20485;-66
2022/02/14 10:41:13;;;;;;;6.82;2.60;;;9.90;94.50;;;;;;5052632;28;20493;-66
2022/02/14 10:43:40;;;;;;;7.97;2.83;;;10.00;93.80;;;;;;5052601;28;20080;-66
2022/02/14 10:46:07;;;;;;;6.10;2.30;;;10.10;93.70;;;;;;5052445;28;20048;-66
2022/02/14 10:48:37;;;;;;;8.13;2.50;;;10.40;93.60;;;;;;5052081;28;20088;-66
2022/02/14 10:51:04;;;;;;;6.70;2.50;;;14.30;91.40;;;;;;5052331;28;20504;-66
2022/02/14 10:53:43;;;;;;;7.88;2.45;;;16.10;89.20;;;;;;5052252;28;20128;-66
2022/02/14 10:56:13;;;;;;;5.85;2.72;;;17.10;86.90;;;;;;5052189;28;20053;-66
2022/02/14 10:58:41;;;;;;;7.93;2.60;;;18.40;87.70;;;;;;5052277;28;20053;-67
2022/02/14 11:01:11;;;;;;;8.27;2.60;;;18.30;84.90;;;;;;5052060;28;20099;-67
2022/02/14 11:03:39;;;;;;;10.95;2.45;;;18.70;84.60;;;;;;5052157;28;20140;-67
2022/02/14 11:06:06;;;;;;;10.13;2.67;;;17.40;85.50;;;;;;5051893;28;20511;-67
2022/02/14 11:08:35;;;;;;;5.75;2.53;;;18.50;84.20;;;;;;5051998;28;20048;-67
2022/02/14 11:11:04;;;;;;;8.60;2.80;;;20.70;83.30;;;;;;5051920;28;20419;-67
2022/02/14 11:13:34;;;;;;;5.18;2.50;;;17.00;84.20;;;;;;5051770;28;20053;-67
2022/02/14 11:16:02;;;;;;;7.38;2.85;;;18.40;83.20;;;;;;5051390;28;20588;-67
2022/02/14 11:18:32;;;;;;;5.53;2.35;;;19.40;81.30;;;;;;5052059;28;20449;-66
2022/02/14 11:21:00;;;;;;;6.32;2.28;;;21.10;80.10;;;;;;5051769;28;20513;-67
2022/02/14 11:23:30;;;;;;;6.47;2.50;;;22.50;79.30;;;;;;5051919;28;20052;-67
2022/02/14 11:26:05;;;;;;;8.95;2.90;;;22.10;78.50;;;;;;5051580;28;20060;-67
2022/02/14 11:28:40;;;;;;;9.68;2.70;;;21.60;80.00;;;;;;5052039;28;20053;-67
2022/02/14 11:31:11;;;;;;;5.90;2.30;;;20.90;80.00;;;;;;5051877;28;20053;-67
2022/02/14 11:33:42;;;;;;;5.00;2.35;;;22.80;79.40;;;;;;5043758;28;20410;-67
2022/02/14 11:36:12;;;;;;;5.90;2.30;;;21.80;78.80;;;;;;5042287;28;20084;-67
2022/02/14 11:38:44;;;;;;;8.25;3.03;;;18.60;79.30;;;;;;5051672;28;20061;-67
2022/02/14 11:41:25;;;;;;;8.68;3.13;;;17.60;83.20;;;;;;5051400;28;20052;-67
2022/02/14 11:43:53;;;;;;;8.63;2.72;;;16.30;83.30;;;;;;5051310;28;20049;-67
2022/02/14 11:46:25;;;;;;;4.40;2.10;;;21.40;82.40;;;;;;5051133;28;20133;-67
2022/02/14 11:49:12;;;;;;;9.75;2.70;;;22.20;78.60;;;;;;5051330;28;20124;-67
2022/02/14 11:51:40;;;;;;;;;;;18.90;81.30;;;;;;5051952;28;20132;-68
2022/02/14 11:54:07;;;;;;;;;;;18.60;81.40;;;;;;5051634;28;19931;-67
2022/02/14 11:56:41;;;;;;;6.85;2.42;;;16.70;86.00;;;;;;5051129;28;20037;-67
2022/02/14 11:59:11;;;;;;;8.02;2.53;;;18.60;83.60;;;;;;5051188;28;20052;-67
2022/02/14 12:02:02;;;;;;;11.48;2.60;;;17.20;84.90;;;;;;5051111;28;20424;-67
2022/02/14 12:04:49;;;;;;;6.10;2.40;;;16.20;86.10;;;;;;5051217;28;20049;-67
2022/02/14 12:07:37;;;;;;;6.57;2.53;;;14.90;88.50;;;;;;5051290;28;20456;-67
2022/02/14 12:10:18;;;;;;;7.70;2.50;;;14.10;90.50;;;;;;5051272;28;20496;-67
2022/02/14 12:13:09;;;;;;;12.52;3.05;;;13.40;90.70;;;;;;5051413;28;20658;-67
2022/02/14 12:21:15;;;;;;;12.57;3.10;;;13.10;91.30;;;;;;5051469;28;20078;-67
2022/02/14 12:23:44;;;;;;;6.63;2.47;;;12.80;91.60;;;;;;5051615;28;20049;-67
2022/02/14 12:26:12;;;;;;;7.25;2.53;;;12.50;91.70;;;;;;5050977;28;20051;-67
2022/02/14 12:28:41;;;;;;;7.78;2.60;;;12.70;92.10;;;;;;5051096;28;20049;-67
2022/02/14 12:31:10;;;;;;;5.82;2.33;;;12.40;92.30;;;;;;5051063;28;20143;-67
2022/02/14 12:33:38;;;;;;;11.02;2.83;;;12.10;92.30;;;;;;5050806;28;20143;-67
2022/02/14 12:36:07;;;;;;;10.75;2.45;;;12.00;92.60;;;;;;5052202;28;20131;-67
2022/02/14 12:38:36;;;;;;;8.43;2.90;;;11.80;92.80;;;;;;5054731;28;20045;-67
2022/02/14 12:41:05;;;;;;;9.63;2.65;;;11.90;92.90;;;;;;5054761;28;20141;-67
2022/02/14 12:43:35;;;;;;;5.97;2.05;;;12.00;93.00;;;;;;5054730;28;20135;-67
2022/02/14 12:46:04;;;;;;;7.35;2.40;;;11.90;93.10;;;;;;5054783;28;20057;-67
2022/02/14 12:48:34;;;;;;;7.43;2.15;;;11.80;93.10;;;;;;5054752;28;20132;-67
2022/02/14 12:51:02;;;;;;;5.75;2.47;;;11.80;93.50;;;;;;5054503;28;20093;-67
2022/02/14 12:53:30;;;;;;;7.95;3.03;;;11.60;93.40;;;;;;5054510;28;20049;-67
2022/02/14 12:56:12;;;;;;;6.43;2.40;;;11.60;93.80;;;;;;5054370;28;20052;-67
2022/02/14 12:58:50;;;;;;;6.93;2.72;;;11.50;93.60;;;;;;5054587;28;20107;-67
2022/02/14 13:01:18;;;;;;;6.97;2.50;;;11.40;93.60;;;;;;5054365;28;20512;-67
2022/02/14 13:03:55;;;;;;;8.82;2.95;;;11.30;93.50;;;;;;5054415;28;20136;-67
2022/02/14 13:06:35;;;;;;;8.45;3.08;;;11.40;93.80;;;;;;5054182;28;20131;-67